Time;durP1;ratioP1;P1;durP2;ratioP2;P2;SDS_P1;SDS_P2;PMS_P1;PMS_P2;Temp;Humidity;BMP_temperature;BMP_pressure;BME280_temperature;BME280_humidity;BME280_pressure;Samples;Min_cycle;Max_cycle;Signal;HPM_P1;HPM_P2
2023/04/15 00:01:20;;;;;;;;;11.50;9.75;;;;;10.73;58.62;100021.19;5022527;28;45340;-64
2023/04/15 00:03:46;;;;;;;;;12.50;9.75;;;;;10.73;58.14;100023.81;5042804;28;45254;-64
2023/04/15 00:06:12;;;;;;;;;9.00;9.00;;;;;10.72;58.44;100024.72;5028962;28;45321;-64
2023/04/15 00:08:38;;;;;;;;;9.00;8.50;;;;;10.72;58.45;100016.84;5030432;28;45996;-64
2023/04/15 00:11:04;;;;;;;;;18.00;11.00;;;;;10.67;58.34;99997.69;5041431;28;45319;-64
2023/04/15 00:13:31;;;;;;;;;12.00;12.00;;;;;10.75;58.49;100018.50;5025336;28;45174;-64
2023/04/15 00:15:57;;;;;;;;;13.25;11.25;;;;;10.73;58.44;100006.28;5022434;28;45413;-64
2023/04/15 00:18:23;;;;;;;;;10.25;9.50;;;;;10.72;58.30;99995.81;5022267;28;46361;-64
2023/04/15 00:20:49;;;;;;;;;11.00;11.00;;;;;10.73;58.79;99990.50;5022274;28;45281;-64
2023/04/15 00:23:14;;;;;;;;;11.25;11.25;;;;;10.71;58.38;99988.81;5022486;28;45627;-64
2023/04/15 00:25:39;;;;;;;;;13.00;10.25;;;;;10.67;58.29;99974.91;5022270;28;45462;-64
2023/04/15 00:28:05;;;;;;;;;11.75;10.50;;;;;10.73;58.56;99984.41;5022279;28;45784;-64
2023/04/15 00:30:30;;;;;;;;;9.50;9.50;;;;;10.73;58.62;99971.25;5034356;28;48696;-64
2023/04/15 00:32:55;;;;;;;;;11.25;10.75;;;;;10.72;58.45;99975.63;5038019;28;45335;-64
2023/04/15 00:35:21;;;;;;;;;10.00;9.50;;;;;10.72;58.62;99972.16;5022103;28;45462;-64
2023/04/15 00:37:46;;;;;;;;;6.50;6.50;;;;;10.72;58.45;99969.53;5022057;28;46241;-64
2023/04/15 00:40:12;;;;;;;;;13.25;10.25;;;;;10.72;58.36;99966.91;5021586;28;45406;-64
2023/04/15 00:42:38;;;;;;;;;8.00;8.00;;;;;10.68;58.43;99952.13;5021950;28;45507;-64
2023/04/15 00:45:04;;;;;;;;;11.00;9.50;;;;;10.69;58.50;99951.19;5021982;28;45404;-64
2023/04/15 00:47:32;;;;;;;;;13.00;9.75;;;;;10.68;58.71;99944.25;5021973;28;46022;-64
2023/04/15 00:49:58;;;;;;;;;12.00;9.00;;;;;10.70;58.63;99956.44;5021803;28;46216;-64
2023/04/15 00:52:23;;;;;;;;;12.25;11.25;;;;;10.70;58.77;99952.94;5022075;28;45495;-64
2023/04/15 00:54:50;;;;;;;;;9.00;8.00;;;;;10.70;58.55;99950.31;5036083;28;45418;-64
2023/04/15 00:57:15;;;;;;;;;16.75;12.50;;;;;10.65;58.48;99942.53;5033598;28;45345;-64
2023/04/15 00:59:40;;;;;;;;;15.75;13.50;;;;;10.68;58.87;99945.09;5035094;28;45408;-65
2023/04/15 01:02:06;;;;;;;;;14.75;13.50;;;;;10.66;58.67;99946.88;5046300;28;45457;-64
2023/04/15 01:04:32;;;;;;;;;11.25;10.50;;;;;10.70;58.61;99950.31;5035669;28;45481;-64
2023/04/15 01:06:57;;;;;;;;;9.25;9.25;;;;;10.68;58.54;99944.25;5036969;28;48191;-64
2023/04/15 01:09:23;;;;;;;;;10.00;9.00;;;;;10.68;58.79;99944.25;5035471;28;45395;-64
2023/04/15 01:11:49;;;;;;;;;13.00;11.00;;;;;10.69;58.71;99943.31;5035548;28;45375;-64
2023/04/15 01:14:15;;;;;;;;;16.00;12.25;;;;;10.68;58.62;99942.47;5037041;28;45383;-64
2023/04/15 01:16:40;;;;;;;;;15.50;12.00;;;;;10.68;58.78;99947.72;5033347;28;47284;-64
2023/04/15 01:19:09;;;;;;;;;16.00;13.25;;;;;10.66;58.62;99941.63;5036811;28;45229;-64
2023/04/15 01:21:38;;;;;;;;;13.00;12.50;;;;;10.64;58.67;99946.09;5028306;28;45512;-64
2023/04/15 01:24:08;;;;;;;;;12.75;11.00;;;;;10.68;58.85;99950.34;5025661;28;45662;-64
2023/04/15 01:26:34;;;;;;;;;11.50;11.50;;;;;10.66;58.59;99941.63;5021219;28;45303;-63
2023/04/15 01:29:00;;;;;;;;;13.00;11.75;;;;;10.68;58.62;99945.09;5020959;28;45293;-63
2023/04/15 01:31:26;;;;;;;;;12.50;12.00;;;;;10.67;58.93;99942.50;5039582;28;45394;-63
2023/04/15 01:33:51;;;;;;;;;15.25;12.25;;;;;10.65;58.90;99937.28;5029043;28;45411;-62
2023/04/15 01:36:16;;;;;;;;;15.25;14.75;;;;;10.68;58.62;99931.09;5021081;28;46253;-62
2023/04/15 01:38:42;;;;;;;;;15.75;11.75;;;;;10.66;58.72;99930.28;5020660;28;45312;-62
2023/04/15 01:41:07;;;;;;;;;19.25;15.00;;;;;10.70;59.00;99942.41;5021030;28;45328;-62
2023/04/15 01:43:35;;;;;;;;;11.75;11.25;;;;;10.70;58.60;99932.78;5020899;28;45535;-62
2023/04/15 01:46:00;;;;;;;;;14.50;13.75;;;;;10.67;59.26;99932.00;5021216;28;45271;-61
2023/04/15 01:48:26;;;;;;;;;14.75;10.75;;;;;10.72;58.96;99940.63;5020731;28;45228;-62
2023/04/15 01:50:52;;;;;;;;;10.25;10.25;;;;;10.71;59.15;99938.91;5021134;28;45182;-62
2023/04/15 01:53:17;;;;;;;;;15.50;13.00;;;;;10.72;59.03;99948.50;5019929;28;45416;-62
2023/04/15 01:55:43;;;;;;;;;13.25;12.75;;;;;10.66;58.89;99933.75;5020553;28;46208;-61
2023/04/15 01:58:08;;;;;;;;;11.25;11.00;;;;;10.73;59.03;99945.81;5020964;28;45239;-62
2023/04/15 02:00:34;;;;;;;;;14.50;13.00;;;;;10.71;59.08;99954.66;5020918;28;45233;-62
2023/04/15 02:02:59;;;;;;;;;14.25;10.75;;;;;10.72;59.24;99949.34;5020607;28;45592;-62
2023/04/15 02:05:25;;;;;;;;;12.75;11.00;;;;;10.72;59.19;99954.59;5036158;28;47259;-62
2023/04/15 02:07:51;;;;;;;;;13.00;13.00;;;;;10.73;59.21;99940.56;5022329;28;45389;-62
2023/04/15 02:10:16;;;;;;;;;16.00;11.75;;;;;10.75;58.87;99951.03;5040213;28;45311;-62
2023/04/15 02:12:42;;;;;;;;;12.75;11.75;;;;;10.76;58.98;99951.91;5026762;28;45498;-62
2023/04/15 02:15:08;;;;;;;;;14.25;13.25;;;;;10.73;59.29;99944.97;5020829;28;46250;-62
2023/04/15 02:17:34;;;;;;;;;13.25;13.00;;;;;10.76;59.30;99946.66;5019252;28;45329;-62
2023/04/15 02:20:00;;;;;;;;;17.50;14.25;;;;;10.76;59.21;99944.03;5020620;28;45278;-62
2023/04/15 02:22:25;;;;;;;;;16.00;13.75;;;;;10.76;59.33;99938.78;5020365;28;45573;-62
2023/04/15 02:24:50;;;;;;;;;15.75;11.00;;;;;10.75;59.07;99944.94;5020159;28;45312;-62
2023/04/15 02:27:17;;;;;;;;;12.50;11.75;;;;;10.75;59.39;99944.94;5020436;28;45280;-62
2023/04/15 02:29:43;;;;;;;;;11.00;9.00;;;;;10.73;59.31;99947.59;5028594;28;45261;-62
2023/04/15 02:32:10;;;;;;;;;8.00;8.00;;;;;10.73;59.48;99950.22;5039062;28;45475;-62
2023/04/15 02:34:38;;;;;;;;;11.00;11.00;;;;;10.73;59.38;99945.81;5037779;28;46052;-62
2023/04/15 02:37:04;;;;;;;;;8.00;8.00;;;;;10.73;59.50;99948.47;5025365;28;45514;-62
2023/04/15 02:39:29;;;;;;;;;7.00;7.00;;;;;10.72;59.58;99944.09;5019936;28;45494;-62
2023/04/15 02:41:57;;;;;;;;;9.50;7.75;;;;;10.71;59.43;99952.88;5020097;28;45491;-63
2023/04/15 02:44:23;;;;;;;;;6.00;6.00;;;;;10.70;59.65;99952.94;5020146;28;46971;-62
2023/04/15 02:46:51;;;;;;;;;9.75;9.25;;;;;10.67;59.49;99958.28;5019930;28;45743;-62
2023/04/15 02:49:17;;;;;;;;;10.00;8.00;;;;;10.66;59.76;99954.78;5020181;28;45348;-62
2023/04/15 02:51:42;;;;;;;;;12.00;9.25;;;;;10.66;59.57;99965.28;5019878;28;45451;-62
2023/04/15 02:54:07;;;;;;;;;9.50;8.50;;;;;10.65;59.75;99963.56;5019902;28;46159;-62
2023/04/15 02:56:33;;;;;;;;;12.00;11.00;;;;;10.65;59.54;99966.19;5019620;28;48632;-62
2023/04/15 02:58:58;;;;;;;;;13.50;11.75;;;;;10.66;59.70;99973.16;5020192;28;45316;-62
2023/04/15 03:01:23;;;;;;;;;11.25;10.50;;;;;10.68;59.74;99975.78;5020734;28;45509;-62
2023/04/15 03:03:49;;;;;;;;;13.00;13.00;;;;;10.68;59.56;99989.75;5045402;28;45299;-62
2023/04/15 03:06:14;;;;;;;;;13.25;12.75;;;;;10.69;59.56;99987.97;5018565;28;45433;-62
2023/04/15 03:08:40;;;;;;;;;15.50;12.25;;;;;10.68;59.75;99995.03;5028407;28;45288;-62
2023/04/15 03:11:07;;;;;;;;;17.00;15.25;;;;;10.69;59.73;99996.75;5038601;28;45248;-62
2023/04/15 03:13:32;;;;;;;;;11.75;9.25;;;;;10.69;59.84;100009.88;5020024;28;45298;-62
2023/04/15 03:15:58;;;;;;;;;12.00;12.00;;;;;10.71;59.79;100021.19;5019567;28;45167;-62
2023/04/15 03:18:23;;;;;;;;;12.50;8.50;;;;;10.71;59.50;100017.72;5019970;28;45282;-62
2023/04/15 03:20:48;;;;;;;;;12.50;12.50;;;;;10.73;59.71;100023.81;5019528;28;45515;-62
2023/04/15 03:23:14;;;;;;;;;13.50;12.25;;;;;10.71;59.63;100015.94;5019485;28;46018;-62
2023/04/15 03:25:39;;;;;;;;;7.00;7.00;;;;;10.75;59.76;100026.41;5030728;28;45352;-62
2023/04/15 03:28:05;;;;;;;;;15.75;12.75;;;;;10.73;59.57;100035.19;5039877;28;45494;-62
2023/04/15 03:30:30;;;;;;;;;11.50;11.00;;;;;10.76;59.77;100038.63;5037130;28;45277;-62
2023/04/15 03:32:55;;;;;;;;;10.75;10.75;;;;;10.76;59.79;100046.53;5035310;28;46856;-62
2023/04/15 03:35:21;;;;;;;;;14.00;12.25;;;;;10.78;59.90;100047.31;5019534;28;45435;-62
2023/04/15 03:37:48;;;;;;;;;11.00;11.00;;;;;10.75;59.88;100045.63;5019741;28;45333;-62
2023/04/15 03:40:13;;;;;;;;;13.25;11.00;;;;;10.77;59.67;100048.22;5029192;28;45431;-62
2023/04/15 03:42:38;;;;;;;;;13.00;12.25;;;;;10.78;59.75;100055.22;5019167;28;46205;-62
2023/04/15 03:45:04;;;;;;;;;13.50;13.00;;;;;10.77;60.06;100048.22;5019314;28;45360;-62
2023/04/15 03:47:29;;;;;;;;;17.00;14.25;;;;;10.79;60.03;100051.69;5020021;28;45428;-62
2023/04/15 03:49:55;;;;;;;;;14.75;13.00;;;;;10.80;59.89;100051.63;5019061;28;48803;-62
2023/04/15 03:52:20;;;;;;;;;11.50;11.25;;;;;10.81;60.08;100056.00;5019300;28;46869;-62
2023/04/15 03:54:46;;;;;;;;;12.25;12.25;;;;;10.82;59.89;100062.13;5018826;28;45400;-62
2023/04/15 03:57:12;;;;;;;;;14.75;11.50;;;;;10.81;59.99;100055.16;5019406;28;45249;-62
2023/04/15 03:59:37;;;;;;;;;14.50;14.25;;;;;10.83;60.09;100063.84;5018972;28;45498;-62
2023/04/15 04:02:02;;;;;;;;;15.00;15.00;;;;;10.83;60.12;100063.84;5030928;28;46162;-62
2023/04/15 04:04:27;;;;;;;;;12.00;12.00;;;;;10.80;59.99;100063.94;5033844;28;49611;-62
2023/04/15 04:06:53;;;;;;;;;10.00;8.75;;;;;10.83;60.24;100072.59;5018825;28;45502;-62
2023/04/15 04:09:18;;;;;;;;;14.25;11.00;;;;;10.81;60.15;100065.66;5032424;28;45291;-62
2023/04/15 04:11:44;;;;;;;;;11.50;9.25;;;;;10.81;60.27;100082.28;5032552;28;53009;-62
2023/04/15 04:14:09;;;;;;;;;7.00;7.00;;;;;10.76;60.42;100073.66;5019079;28;45565;-62
2023/04/15 04:16:35;;;;;;;;;7.25;7.25;;;;;10.73;60.31;100069.34;5039217;28;45338;-62
2023/04/15 04:19:00;;;;;;;;;8.50;7.75;;;;;10.71;60.57;100081.66;5029417;28;45507;-62
2023/04/15 04:21:26;;;;;;;;;5.00;5.00;;;;;10.68;60.67;100076.47;5022423;28;46213;-62
2023/04/15 04:23:52;;;;;;;;;7.25;7.25;;;;;10.66;60.47;100074.78;5022171;28;45348;-62
2023/04/15 04:26:18;;;;;;;;;4.25;4.25;;;;;10.62;60.70;100087.16;5021785;28;45488;-61
2023/04/15 04:28:43;;;;;;;;;5.25;5.25;;;;;10.59;60.98;100087.22;5029888;28;45363;-62
2023/04/15 04:31:09;;;;;;;;;4.50;4.50;;;;;10.56;60.53;100087.28;5041572;28;46143;-62
2023/04/15 04:33:34;;;;;;;;;6.25;6.25;;;;;10.46;60.63;100085.78;5032445;28;45323;-62
2023/04/15 04:36:00;;;;;;;;;3.50;3.50;;;;;10.50;60.75;100097.94;5022102;28;45292;-62
2023/04/15 04:38:25;;;;;;;;;4.25;4.25;;;;;10.47;60.80;100100.66;5021783;28;45481;-62
2023/04/15 04:40:50;;;;;;;;;5.00;4.00;;;;;10.42;60.90;100095.50;5036788;28;47172;-62
2023/04/15 04:43:16;;;;;;;;;3.50;3.50;;;;;10.36;60.78;100104.41;5021866;28;45392;-62
2023/04/15 04:45:41;;;;;;;;;4.50;4.00;;;;;10.38;60.91;100104.38;5022294;28;45249;-62
2023/04/15 04:48:07;;;;;;;;;2.00;2.00;;;;;10.36;60.77;100112.28;5021497;28;45588;-62
2023/04/15 04:50:34;;;;;;;;;3.50;2.00;;;;;10.30;60.85;100109.78;5028422;28;47010;-62
2023/04/15 04:53:00;;;;;;;;;3.50;3.50;;;;;10.32;60.84;100118.47;5026734;28;45278;-62
2023/04/15 04:55:26;;;;;;;;;3.00;3.00;;;;;10.28;61.06;100119.44;5021942;28;45353;-62
2023/04/15 04:57:51;;;;;;;;;1.00;1.00;;;;;10.28;60.66;100124.69;5021657;28;45258;-62
2023/04/15 05:00:16;;;;;;;;;2.00;2.00;;;;;10.25;61.03;100133.50;5021850;28;46295;-62
2023/04/15 05:02:42;;;;;;;;;3.00;3.00;;;;;10.21;60.76;100130.97;5021582;28;45308;-62
2023/04/15 05:05:09;;;;;;;;;3.75;3.00;;;;;10.23;60.67;100140.53;5035125;28;45403;-62
2023/04/15 05:07:34;;;;;;;;;2.00;2.00;;;;;10.22;60.57;100140.59;5021755;28;45431;-62
2023/04/15 05:09:59;;;;;;;;;3.75;3.75;;;;;10.22;60.78;100140.59;5040681;28;49460;-62
2023/04/15 05:12:25;;;;;;;;;3.50;3.50;;;;;10.17;60.68;100142.44;5029846;28;45324;-62
2023/04/15 05:14:50;;;;;;;;;3.00;3.00;;;;;10.18;60.89;100147.66;5021660;28;45407;-62
2023/04/15 05:17:16;;;;;;;;;0.00;0.00;;;;;10.17;60.87;100160.84;5033427;28;45200;-63
2023/04/15 05:19:41;;;;;;;;;4.25;3.00;;;;;10.18;61.00;100171.28;5036128;28;46406;-62
2023/04/15 05:22:07;;;;;;;;;2.25;2.25;;;;;10.17;60.93;100176.59;5021128;28;54833;-62
2023/04/15 05:24:32;;;;;;;;;2.00;2.00;;;;;10.15;60.79;100170.50;5021054;28;45538;-62
2023/04/15 05:26:57;;;;;;;;;2.00;2.00;;;;;10.15;60.60;100184.50;5021580;28;45531;-62
2023/04/15 05:29:23;;;;;;;;;1.00;1.00;;;;;10.13;60.98;100185.44;5038527;28;46586;-62
2023/04/15 05:31:48;;;;;;;;;2.00;2.00;;;;;10.17;60.71;100192.34;5041238;28;47679;-61
2023/04/15 05:34:15;;;;;;;;;1.00;1.00;;;;;10.15;60.95;100196.75;5039805;28;45472;-62
2023/04/15 05:36:40;;;;;;;;;1.00;1.00;;;;;10.16;60.74;100199.38;5040170;28;45570;-61
2023/04/15 05:39:06;;;;;;;;;1.00;1.00;;;;;10.18;60.90;100212.44;5040211;28;45463;-63
2023/04/15 05:41:31;;;;;;;;;1.00;1.00;;;;;10.17;61.04;100215.97;5040870;28;52000;-61
2023/04/15 05:43:57;;;;;;;;;1.00;1.00;;;;;10.17;60.77;100219.44;5039551;28;45332;-62
2023/04/15 05:46:22;;;;;;;;;0.50;0.50;;;;;10.16;60.86;100216.84;5040986;28;45617;-62
2023/04/15 05:48:47;;;;;;;;;1.25;1.25;;;;;10.18;60.85;100228.22;5039337;28;45965;-62
2023/04/15 05:51:13;;;;;;;;;3.00;2.00;;;;;10.20;60.68;100232.53;5041222;28;45263;-61
2023/04/15 05:53:40;;;;;;;;;3.00;2.00;;;;;10.21;60.77;100233.38;5040661;28;45474;-62
2023/04/15 05:56:06;;;;;;;;;2.50;2.50;;;;;10.20;60.63;100237.78;5040862;28;45474;-61
2023/04/15 05:58:31;;;;;;;;;1.00;1.00;;;;;10.21;60.53;100254.38;5040336;28;46143;-61
2023/04/15 06:00:57;;;;;;;;;1.00;1.00;;;;;10.22;60.76;100250.88;5040830;28;45218;-61
2023/04/15 06:03:22;;;;;;;;;1.25;1.00;;;;;10.23;60.68;100263.09;5023691;28;45457;-60
2023/04/15 06:05:48;;;;;;;;;2.00;2.00;;;;;10.22;60.91;100264.84;5026498;28;48136;-62
2023/04/15 06:08:13;;;;;;;;;1.00;1.00;;;;;10.21;60.87;100271.03;5024150;28;46262;-62
2023/04/15 06:10:39;;;;;;;;;2.00;2.00;;;;;10.21;60.79;100278.91;5042630;28;45309;-62
2023/04/15 06:13:04;;;;;;;;;4.00;3.50;;;;;10.18;60.59;100271.06;5023700;28;45502;-62
2023/04/15 06:15:30;;;;;;;;;2.00;2.00;;;;;10.22;60.80;100283.22;5021940;28;45351;-61
2023/04/15 06:17:56;;;;;;;;;5.50;4.50;;;;;10.24;60.71;100288.47;5037727;28;45474;-61
2023/04/15 06:20:22;;;;;;;;;5.25;3.75;;;;;10.23;60.48;100289.38;5032666;28;45308;-61
2023/04/15 06:22:48;;;;;;;;;4.00;4.00;;;;;10.25;60.96;100300.69;5020095;28;45450;-62
2023/04/15 06:25:14;;;;;;;;;3.25;3.25;;;;;10.24;60.80;100301.63;5034946;28;45285;-61
2023/04/15 06:27:40;;;;;;;;;2.00;2.00;;;;;10.24;60.78;100302.47;5045151;27;47013;-61
2023/04/15 06:30:07;;;;;;;;;3.50;3.00;;;;;10.26;60.64;100318.19;5047658;27;45307;-62
2023/04/15 06:32:33;;;;;;;;;4.75;4.75;;;;;10.26;60.72;100312.94;5047087;28;45450;-63
2023/04/15 06:34:58;;;;;;;;;5.75;3.75;;;;;10.27;60.78;100329.56;5032296;28;45511;-61
2023/04/15 06:37:23;;;;;;;;;4.00;3.00;;;;;10.25;60.93;100324.31;5028063;28;45492;-61
2023/04/15 06:39:49;;;;;;;;;3.00;3.00;;;;;10.31;60.93;100336.50;5026495;28;45355;-61
2023/04/15 06:42:15;;;;;;;;;5.00;3.00;;;;;10.31;60.88;100339.97;5044001;28;45418;-61
2023/04/15 06:44:40;;;;;;;;;2.75;2.75;;;;;10.31;60.74;100342.59;5028627;28;45431;-61
2023/04/15 06:47:05;;;;;;;;;4.00;4.00;;;;;10.34;60.62;100352.16;5029049;28;45446;-61
2023/04/15 06:49:32;;;;;;;;;4.00;4.00;;;;;10.35;60.75;100351.28;5022027;28;45312;-61
2023/04/15 06:51:59;;;;;;;;;3.00;3.00;;;;;10.37;60.72;100363.53;5027160;28;45830;-63
2023/04/15 06:54:24;;;;;;;;;4.50;4.25;;;;;10.36;60.76;100361.81;5029193;28;45557;-61
2023/04/15 06:56:50;;;;;;;;;3.75;3.75;;;;;10.39;60.89;100364.38;5027023;28;46025;-60
2023/04/15 06:59:16;;;;;;;;;4.75;4.00;;;;;10.38;61.11;100372.28;5027358;28;45302;-61
2023/04/15 07:01:41;;;;;;;;;3.25;3.25;;;;;10.41;60.71;100390.59;5023952;28;45379;-61
2023/04/15 07:04:07;;;;;;;;;2.50;2.00;;;;;10.43;60.73;100380.06;5025975;28;45589;-61
2023/04/15 07:06:32;;;;;;;;;2.25;2.25;;;;;10.44;60.89;100389.66;5027010;28;45410;-60
2023/04/15 07:08:58;;;;;;;;;3.00;3.00;;;;;10.47;60.90;100392.25;5028665;28;45252;-61
2023/04/15 07:11:25;;;;;;;;;2.25;2.25;;;;;10.49;60.73;100414.09;5026959;28;45383;-60
2023/04/15 07:13:50;;;;;;;;;3.00;2.75;;;;;10.50;60.92;100413.19;5027316;28;45428;-61
2023/04/15 07:16:16;;;;;;;;;7.00;4.00;;;;;10.45;61.04;100405.41;5027610;28;45693;-61
2023/04/15 07:18:42;;;;;;;;;3.00;3.00;;;;;10.49;60.76;100411.47;5027791;28;45497;-60
2023/04/15 07:21:07;;;;;;;;;2.75;0.75;;;;;10.47;60.70;100416.75;5027422;28;45473;-61
2023/04/15 07:23:33;;;;;;;;;4.00;3.00;;;;;10.51;60.72;100436.81;5024553;28;45467;-60
2023/04/15 07:25:58;;;;;;;;;2.00;2.00;;;;;10.53;60.93;100439.44;5028519;28;45996;-61
2023/04/15 07:28:23;;;;;;;;;3.00;3.00;;;;;10.53;60.63;100436.81;5027842;28;45458;-60
2023/04/15 07:30:49;;;;;;;;;3.00;3.00;;;;;10.48;60.80;100436.03;5027637;28;45501;-61
2023/04/15 07:33:14;;;;;;;;;3.00;3.00;;;;;10.55;60.76;100456.00;5027906;28;45472;-60
2023/04/15 07:35:39;;;;;;;;;2.50;2.50;;;;;10.55;60.72;100459.53;5025974;28;46077;-61
2023/04/15 07:38:05;;;;;;;;;3.00;3.00;;;;;10.57;60.90;100462.13;5027792;28;45447;-60
2023/04/15 07:40:31;;;;;;;;;3.00;3.00;;;;;10.56;60.76;100471.78;5026338;28;45515;-60
2023/04/15 07:42:57;;;;;;;;;0.00;0.00;;;;;10.56;60.89;100470.88;5026505;28;45587;-61
2023/04/15 07:45:22;;;;;;;;;3.50;3.50;;;;;10.57;60.76;100477.88;5027776;28;46234;-60
2023/04/15 07:47:49;;;;;;;;;3.75;2.75;;;;;10.59;60.80;100491.00;5028111;28;45342;-61
2023/04/15 07:50:16;;;;;;;;;2.25;2.25;;;;;10.61;60.72;100483.97;5026636;28;45238;-61
2023/04/15 07:52:41;;;;;;;;;3.00;2.00;;;;;10.61;60.72;100500.56;5043683;28;45492;-61
2023/04/15 07:55:07;;;;;;;;;2.00;2.00;;;;;10.59;60.69;100499.75;5025784;28;46808;-61
2023/04/15 07:57:36;;;;;;;;;2.00;2.00;;;;;10.63;60.71;100501.44;5022877;28;45507;-60
2023/04/15 08:00:06;;;;;;;;;2.00;1.00;;;;;10.65;60.73;100510.13;5022591;28;45525;-61
2023/04/15 08:02:31;;;;;;;;;2.00;1.25;;;;;10.62;60.92;100509.34;5022155;28;45255;-63
2023/04/15 08:04:57;;;;;;;;;2.50;2.25;;;;;10.69;60.81;100519.72;5035318;28;45377;-64
2023/04/15 08:07:23;;;;;;;;;1.00;1.00;;;;;10.71;60.77;100532.81;5022406;28;45403;-64
2023/04/15 08:09:48;;;;;;;;;0.75;0.75;;;;;10.71;60.85;100520.53;5039896;28;45456;-61
2023/04/15 08:12:13;;;;;;;;;2.00;2.00;;;;;10.76;60.83;100535.38;5032395;28;45530;-66
2023/04/15 08:14:39;;;;;;;;;1.00;1.00;;;;;10.78;61.00;100542.34;5021881;28;46136;-63
2023/04/15 08:17:05;;;;;;;;;2.00;2.00;;;;;10.76;60.71;100549.38;5022381;28;45411;-63
2023/04/15 08:19:30;;;;;;;;;3.00;1.25;;;;;10.79;60.88;100551.06;5034383;28;45181;-65
2023/04/15 08:21:56;;;;;;;;;2.00;2.00;;;;;10.81;60.93;100565.91;5020591;28;49267;-62
2023/04/15 08:24:22;;;;;;;;;2.75;2.75;;;;;10.79;60.70;100566.84;5035949;28;46176;-63
2023/04/15 08:26:47;;;;;;;;;4.50;3.00;;;;;10.83;60.72;100568.50;5022285;28;45348;-62
2023/04/15 08:29:12;;;;;;;;;2.00;2.00;;;;;10.84;60.73;100581.66;5023770;28;45890;-62
2023/04/15 08:31:38;;;;;;;;;4.00;4.00;;;;;10.84;60.44;100586.03;5042177;28;45302;-62
2023/04/15 08:34:04;;;;;;;;;6.00;6.00;;;;;10.86;60.76;100594.75;5028139;28;45161;-62
2023/04/15 08:36:31;;;;;;;;;3.00;3.00;;;;;10.80;60.74;100585.22;5037260;28;45505;-62
2023/04/15 08:38:57;;;;;;;;;6.00;6.00;;;;;10.87;60.69;100601.75;5021555;28;45363;-63
2023/04/15 08:41:24;;;;;;;;;13.25;10.00;;;;;10.87;60.76;100605.25;5037682;28;45390;-62
2023/04/15 08:43:53;;;;;;;;;3.50;3.50;;;;;10.94;60.81;100610.41;5036892;28;46976;-62
2023/04/15 08:46:19;;;;;;;;;3.75;3.50;;;;;10.97;60.84;100618.22;5021660;28;45359;-67
2023/04/15 08:48:47;;;;;;;;;5.00;5.00;;;;;10.96;60.56;100620.00;5021510;28;45372;-64
2023/04/15 08:51:15;;;;;;;;;4.00;4.00;;;;;11.00;60.62;100626.94;5021664;28;45373;-63
2023/04/15 08:53:42;;;;;;;;;3.00;3.00;;;;;10.97;60.78;100627.00;5026975;28;46648;-62
2023/04/15 08:56:09;;;;;;;;;2.00;2.00;;;;;11.05;60.45;100643.47;5036724;28;45269;-62
2023/04/15 08:58:35;;;;;;;;;2.00;2.00;;;;;11.06;60.63;100647.00;5033231;28;45466;-63
2023/04/15 09:01:00;;;;;;;;;3.75;3.25;;;;;11.07;60.78;100646.09;5034025;28;45420;-64
2023/04/15 09:03:27;;;;;;;;;2.00;1.00;;;;;11.09;60.81;100653.97;5033788;28;45996;-64
2023/04/15 09:05:53;;;;;;;;;4.25;2.00;;;;;11.14;60.81;100657.38;5021519;28;45711;-65
2023/04/15 09:08:19;;;;;;;;;2.50;2.50;;;;;11.17;60.99;100662.56;5026767;28;45335;-62
2023/04/15 09:10:44;;;;;;;;;2.75;2.75;;;;;11.19;60.98;100668.69;5040527;28;45249;-64
2023/04/15 09:13:11;;;;;;;;;1.75;1.75;;;;;11.21;61.01;100670.38;5023633;28;45822;-65
2023/04/15 09:15:37;;;;;;;;;3.50;3.50;;;;;11.27;61.04;100679.06;5021463;28;45336;-65
2023/04/15 09:18:03;;;;;;;;;2.50;1.00;;;;;11.27;61.07;100681.69;5021059;28;45316;-69
2023/04/15 09:20:28;;;;;;;;;2.00;2.00;;;;;11.31;60.83;100688.66;5020923;28;45383;-67
2023/04/15 09:22:54;;;;;;;;;2.00;1.25;;;;;11.34;61.00;100691.22;5030797;28;47229;-67
2023/04/15 09:25:28;;;;;;;;;2.00;2.00;;;;;11.38;61.22;100700.78;5040971;28;45294;-65
2023/04/15 09:28:00;;;;;;;;;3.00;3.00;;;;;11.41;61.18;100707.75;5021782;28;45324;-62
2023/04/15 09:30:27;;;;;;;;;3.00;3.00;;;;;11.41;61.15;100697.22;5032419;28;45281;-61
2023/04/15 09:32:58;;;;;;;;;4.25;4.25;;;;;11.46;61.14;100716.44;5036742;28;46399;-61
2023/04/15 09:35:25;;;;;;;;;4.50;3.25;;;;;11.49;61.14;100719.00;5034831;28;45393;-60
2023/04/15 09:37:51;;;;;;;;;5.25;4.00;;;;;11.53;61.05;100723.31;5033233;28;45389;-61
2023/04/15 09:40:37;;;;;;;;;4.25;4.25;;;;;11.58;60.97;100729.38;5020537;28;45353;-61
2023/04/15 09:43:07;;;;;;;;;5.50;4.00;;;;;11.57;60.95;100730.25;5036101;28;46064;-61
2023/04/15 09:45:34;;;;;;;;;7.00;4.00;;;;;11.65;60.91;100743.28;5020682;28;45368;-61
2023/04/15 09:48:14;;;;;;;;;6.50;4.50;;;;;11.70;60.84;100751.97;5027641;28;45363;-62
2023/04/15 09:50:42;;;;;;;;;7.00;6.00;;;;;11.66;60.85;100739.75;5026279;28;45535;-62
2023/04/15 09:53:15;;;;;;;;;6.00;6.00;;;;;11.77;60.94;100761.47;5031334;28;46329;-62
2023/04/15 09:55:44;;;;;;;;;7.50;7.00;;;;;11.82;60.73;100769.28;5031552;28;45415;-61
2023/04/15 09:58:20;;;;;;;;;5.00;5.00;;;;;11.85;60.74;100780.63;5020228;28;45282;-61
2023/04/15 10:00:50;;;;;;;;;6.25;6.25;;;;;11.88;60.96;100779.72;5035727;28;45659;-61
2023/04/15 10:03:21;;;;;;;;;5.00;5.00;;;;;11.91;60.43;100774.41;5020253;28;46401;-61
2023/04/15 10:05:50;;;;;;;;;11.50;10.25;;;;;11.94;60.56;100781.38;5019180;28;45296;-61
2023/04/15 10:08:22;;;;;;;;;7.50;6.75;;;;;11.96;60.69;100788.38;5025288;28;45443;-61
2023/04/15 10:10:48;;;;;;;;;6.50;6.00;;;;;12.02;60.58;100811.09;5039474;28;45450;-61
2023/04/15 10:13:17;;;;;;;;;5.25;5.00;;;;;12.06;60.55;100801.34;5021651;28;46123;-61
2023/04/15 10:15:44;;;;;;;;;5.25;5.25;;;;;12.07;60.48;100819.75;5035181;28;45363;-61
2023/04/15 10:18:12;;;;;;;;;6.00;6.00;;;;;12.08;60.42;100821.50;5020168;28;45396;-62
2023/04/15 10:20:39;;;;;;;;;6.25;4.75;;;;;12.10;60.41;100824.97;5020011;28;45230;-59
2023/04/15 10:23:05;;;;;;;;;4.00;4.00;;;;;12.10;60.44;100811.81;5022410;28;46338;-59
2023/04/15 10:25:32;;;;;;;;;7.00;5.75;;;;;12.12;60.37;100820.53;5055518;28;45759;-59
2023/04/15 10:27:59;;;;;;;;;4.25;4.25;;;;;12.13;60.33;100819.66;5020555;28;45404;-61
2023/04/15 10:30:25;;;;;;;;;4.50;4.50;;;;;12.17;60.32;100825.72;5031599;28;45313;-61
2023/04/15 10:32:51;;;;;;;;;5.00;5.00;;;;;12.19;60.24;100832.69;5023716;28;46033;-60
2023/04/15 10:35:18;;;;;;;;;6.50;6.50;;;;;12.24;60.36;100829.97;5032118;28;45261;-60
2023/04/15 10:37:43;;;;;;;;;7.75;6.00;;;;;12.26;60.13;100828.16;5032882;28;45331;-67
2023/04/15 10:40:27;;;;;;;;;5.75;5.00;;;;;12.37;60.19;100835.00;5019553;28;45412;-71
2023/04/15 10:42:54;;;;;;;;;4.00;4.00;;;;;12.45;60.31;100835.72;5019722;28;45307;-69
2023/04/15 10:45:20;;;;;;;;;6.50;5.75;;;;;12.55;60.67;100849.56;5019813;28;45303;-73
2023/04/15 10:47:50;;;;;;;;;7.00;7.00;;;;;12.65;60.55;100846.72;5019894;28;45517;-75
2023/04/15 10:50:18;;;;;;;;;15.75;14.50;;;;;12.77;60.34;100842.94;5023752;28;45164;-76
2023/04/15 10:52:43;;;;;;;;;10.75;9.25;;;;;12.89;60.24;100851.50;5033245;28;46387;-77
2023/04/15 10:55:14;;;;;;;;;6.00;6.00;;;;;13.00;60.36;100854.75;5033878;28;45303;-73
2023/04/15 10:57:41;;;;;;;;;5.75;5.75;;;;;13.10;60.35;100855.41;5019888;28;45374;-74
2023/04/15 11:00:12;;;;;;;;;6.25;4.75;;;;;13.19;60.41;100857.84;5019521;28;45227;-74
2023/04/15 11:02:39;;;;;;;;;4.75;4.75;;;;;13.27;60.42;100860.28;5039466;28;45491;-74
2023/04/15 11:05:04;;;;;;;;;7.00;5.00;;;;;13.31;60.10;100861.97;5036185;28;45411;-73
2023/04/15 11:07:48;;;;;;;;;5.75;5.75;;;;;13.40;60.12;100874.13;5030521;28;45474;-74
2023/04/15 11:10:16;;;;;;;;;5.00;5.00;;;;;13.41;59.79;100863.53;5037932;28;46119;-74
2023/04/15 11:12:43;;;;;;;;;6.25;6.25;;;;;13.45;59.69;100872.25;5025094;28;46119;-73
2023/04/15 11:15:29;;;;;;;;;7.00;7.00;;;;;13.48;59.82;100880.06;5035171;28;45343;-74
2023/04/15 11:17:56;;;;;;;;;6.75;6.75;;;;;13.47;59.93;100880.97;5019417;28;45319;-68